createdAt,value
2019-01-03T00:04:54.322Z,49.70
2019-01-03T00:10:17.914Z,49.80
2019-01-03T00:15:42.882Z,49.60
2019-01-03T00:21:06.885Z,49.60
2019-01-03T00:26:34.739Z,49.60
2019-01-03T00:32:06.743Z,49.70
2019-01-03T00:37:30.486Z,49.80
2019-01-03T00:42:58.963Z,49.60
2019-01-03T00:48:22.984Z,49.80
2019-01-03T00:53:45.445Z,49.80
2019-01-03T00:59:09.044Z,50.20
2019-01-03T01:04:49.155Z,50.10
2019-01-03T01:10:12.430Z,50.40
2019-01-03T01:15:43.282Z,50.10
2019-01-03T01:21:14.774Z,50.10
2019-01-03T01:26:38.045Z,50.20
2019-01-03T01:32:11.973Z,50.20
2019-01-03T01:37:45.584Z,50.10
2019-01-03T01:42:59.451Z,50.10
2019-01-03T01:48:22.964Z,50.00
2019-01-03T01:53:47.569Z,50.30
2019-01-03T01:59:21.263Z,50.20
2019-01-03T02:04:38.093Z,50.40
2019-01-03T02:10:01.617Z,50.10
2019-01-03T02:15:25.571Z,50.30
2019-01-03T02:20:56.774Z,50.40
2019-01-03T02:26:24.012Z,50.30
2019-01-03T02:31:47.524Z,50.20
2019-01-03T02:37:18.590Z,50.00
2019-01-03T02:43:02.047Z,50.00
2019-01-03T02:48:26.753Z,49.90
2019-01-03T02:53:59.474Z,49.90
2019-01-03T02:59:39.076Z,49.90
2019-01-03T03:05:05.537Z,49.80
2019-01-03T03:10:43.655Z,49.90
2019-01-03T03:16:06.943Z,49.70
2019-01-03T03:21:30.968Z,50.10
2019-01-03T03:26:54.714Z,50.20
2019-01-03T03:32:18.425Z,50.10
2019-01-03T03:37:45.814Z,50.10
2019-01-03T03:43:10.335Z,49.90
2019-01-03T03:48:34.993Z,49.80
2019-01-03T03:54:02.684Z,49.70
2019-01-03T03:59:26.475Z,49.70
2019-01-03T04:04:49.443Z,49.60
2019-01-03T04:10:23.064Z,49.60
2019-01-03T04:15:47.815Z,49.60
2019-01-03T04:21:18.174Z,49.60
2019-01-03T04:26:52.443Z,49.60
2019-01-03T04:32:16.043Z,50.20
2019-01-03T04:37:37.108Z,49.50
2019-01-03T04:43:10.583Z,49.60
2019-01-03T04:48:41.343Z,49.60
2019-01-03T04:54:21.333Z,49.60
2019-01-03T04:59:44.944Z,49.60
2019-01-03T05:05:18.706Z,49.60
2019-01-03T05:10:38.895Z,49.60
2019-01-03T05:16:02.625Z,49.60
2019-01-03T05:21:25.395Z,49.50
2019-01-03T05:26:59.354Z,49.50
2019-01-03T05:32:32.787Z,49.50
2019-01-03T05:37:56.131Z,49.50
2019-01-03T05:43:26.998Z,49.50
2019-01-03T05:49:07.442Z,49.40
2019-01-03T05:54:31.164Z,49.30
2019-01-03T05:59:59.066Z,49.30
2019-01-03T06:05:23.024Z,49.50
2019-01-03T06:10:51.143Z,49.30
2019-01-03T06:16:15.343Z,49.50
2019-01-03T06:21:39.293Z,49.30
2019-01-03T06:27:02.374Z,49.30
2019-01-03T06:32:30.394Z,49.30
2019-01-03T06:37:53.673Z,49.30
2019-01-03T06:43:09.183Z,49.30
2019-01-03T06:48:32.036Z,49.20
2019-01-03T06:53:55.804Z,49.40
2019-01-03T06:59:19.084Z,49.30
2019-01-03T07:04:53.006Z,49.30
2019-01-03T07:10:17.753Z,49.30
2019-01-03T07:15:48.615Z,49.40
2019-01-03T07:21:17.584Z,49.60
2019-01-03T07:26:41.533Z,49.60
2019-01-03T07:32:04.893Z,49.60
2019-01-03T07:37:28.376Z,49.60
2019-01-03T07:42:59.124Z,49.40
2019-01-03T07:48:24.714Z,49.40
2019-01-03T07:54:04.394Z,49.00
2019-01-03T07:59:28.114Z,48.90
2019-01-03T08:04:45.444Z,49.30
2019-01-03T08:10:22.054Z,49.70
2019-01-03T08:15:52.733Z,49.30
2019-01-03T08:21:20.713Z,49.10
2019-01-03T08:26:51.974Z,48.90
2019-01-03T08:32:17.105Z,46.20
2019-01-03T08:37:49.844Z,48.20
2019-01-03T08:43:17.584Z,48.80
2019-01-03T08:48:45.405Z,49.10
2019-01-03T08:54:19.874Z,49.40
2019-01-03T08:59:47.551Z,49.40
2019-01-03T09:05:27.885Z,49.50
2019-01-03T09:10:51.753Z,49.00
2019-01-03T09:16:22.014Z,49.10
2019-01-03T09:21:56.894Z,48.10
2019-01-03T09:27:21.123Z,46.40
2019-01-03T09:32:56.425Z,47.20
2019-01-03T09:38:22.353Z,47.50
2019-01-03T09:43:45.673Z,47.80
2019-01-03T09:48:52.124Z,48.00
2019-01-03T09:53:59.967Z,48.10
2019-01-03T09:59:05.455Z,48.50
2019-01-03T10:04:11.502Z,48.50
2019-01-03T10:09:18.163Z,48.90
2019-01-03T10:14:23.783Z,49.00
2019-01-03T10:19:29.445Z,48.90
2019-01-03T10:24:35.613Z,48.80
2019-01-03T10:29:41.906Z,48.90
2019-01-03T10:34:48.345Z,49.10
2019-01-03T10:39:54.984Z,48.90
2019-01-03T10:45:00.953Z,47.30
2019-01-03T10:50:07.374Z,44.60
2019-01-03T10:55:13.874Z,45.00
2019-01-03T11:00:20.413Z,45.30
2019-01-03T11:05:26.654Z,45.80
2019-01-03T11:10:34.656Z,46.00
2019-01-03T11:15:40.325Z,46.30
2019-01-03T11:20:46.573Z,46.40
2019-01-03T11:25:52.354Z,46.30
2019-01-03T11:31:00.305Z,46.50
2019-01-03T11:36:06.668Z,46.80
2019-01-03T11:41:12.688Z,46.50
2019-01-03T11:46:19.286Z,45.90
2019-01-03T11:51:25.263Z,45.60
2019-01-03T11:56:31.604Z,45.80
2019-01-03T12:01:38.663Z,46.40
2019-01-03T12:06:44.563Z,46.60
2019-01-03T12:11:50.904Z,45.90
2019-01-03T12:16:58.902Z,44.80
2019-01-03T12:22:05.463Z,45.40
2019-01-03T12:27:11.034Z,45.80
2019-01-03T12:32:17.572Z,46.00
2019-01-03T12:37:23.904Z,46.00
2019-01-03T12:42:30.133Z,46.30
2019-01-03T12:47:36.554Z,46.30
2019-01-03T12:52:42.598Z,46.30
2019-01-03T12:57:49.863Z,46.30
2019-01-03T13:02:55.994Z,46.30
2019-01-03T13:08:01.823Z,46.40
2019-01-03T13:13:08.923Z,46.30
2019-01-03T13:18:15.704Z,46.40
2019-01-03T13:23:21.585Z,46.60
2019-01-03T13:28:27.564Z,46.60
2019-01-03T13:33:33.284Z,46.70
2019-01-03T13:38:39.553Z,46.70
2019-01-03T13:43:45.714Z,46.90
2019-01-03T13:48:52.263Z,46.90
2019-01-03T13:53:58.353Z,46.70
2019-01-03T13:59:04.554Z,46.30
2019-01-03T14:04:10.949Z,46.30
2019-01-03T14:09:16.655Z,46.30
2019-01-03T14:14:23.227Z,47.10
2019-01-03T14:19:28.874Z,48.20
2019-01-03T14:24:35.291Z,48.10
2019-01-03T14:29:41.934Z,48.40
2019-01-03T14:34:48.414Z,48.30
2019-01-03T14:39:55.102Z,46.30
2019-01-03T14:45:01.578Z,37.90
2019-01-03T14:50:08.905Z,41.10
2019-01-03T14:55:14.645Z,43.30
2019-01-03T15:00:21.036Z,43.90
2019-01-03T15:05:27.073Z,44.50
2019-01-03T15:10:34.723Z,45.00
2019-01-03T15:15:40.879Z,45.50
2019-01-03T15:20:48.554Z,45.80
2019-01-03T15:25:54.365Z,46.00
2019-01-03T15:31:00.844Z,46.40
2019-01-03T15:36:07.195Z,46.70
2019-01-03T15:41:13.374Z,46.70
2019-01-03T15:46:19.673Z,46.80
2019-01-03T15:51:25.543Z,47.10
2019-01-03T15:56:32.363Z,47.20
2019-01-03T16:01:38.517Z,47.40
2019-01-03T16:06:45.064Z,47.50
2019-01-03T16:11:50.727Z,47.70
2019-01-03T16:16:56.775Z,47.50
2019-01-03T16:22:04.137Z,47.20
2019-01-03T16:27:09.989Z,48.20
2019-01-03T16:32:15.853Z,47.80
2019-01-03T16:37:22.153Z,47.70
